• Join FlightAware (Why Join?)
  • Login
  • US Flag GB Flag 
17:48 EDT


 

Airport Tracker/Info


-or-


 

Live Flight TrackerFlight Track Log ✈ N379CD ✈ 23-May-2013 ✈ KIKW - KJWN

Flight Track Log - Related Links

Times and Time Zones

All times are in EDT time to prevent confusion due to time zone crossing. See the N379CD flight status page for this flight to view local times or setup timezone preferences in your user account.

Time Position Orientation Groundspeed Altitude Reporting Facility
EDT Latitude Longitude Course Direction KTS MPH feet Rate Location/Type
12:49 43.4300 -84.3528 196° South  Level Estimated
12:50 43.3832 -84.3699 195° South  Level FlightAware Approximate
12:51 43.3364 -84.3869 195° South  Level FlightAware Approximate
12:52 43.2896 -84.4040 195° South  Level FlightAware Approximate
12:53 43.2427 -84.4210 195° South  Level FlightAware Approximate
12:54 43.1959 -84.4380 195° South  Level FlightAware Approximate
12:55 43.1491 -84.4549 195° South  Level FlightAware Approximate
12:56 43.1025 -84.4730 196° South  Level Estimated
12:57 43.0559 -84.4910 196° South  Level FlightAware Approximate
12:58 43.0093 -84.5090 196° South  Level FlightAware Approximate
12:59 42.9626 -84.5270 196° South  Level FlightAware Approximate
13:00 42.9160 -84.5449 196° South  Level FlightAware Approximate
13:01 42.8694 -84.5628 196° South  Level FlightAware Approximate
13:02 42.8228 -84.5807 196° South  Level FlightAware Approximate
13:02 42.7236 -84.6444 196° South 189 217 4,000  Level Chicago Center
13:03 42.7761 -84.5985 196° South  Level FlightAware Approximate
13:03 42.6614 -84.6636 193° South 193 222 4,000  Level Chicago Center
13:04 42.7295 -84.6163 196° South  Level FlightAware Approximate
13:04 42.6119 -84.6842 197° South 189 217 4,000  Level Chicago Center
13:05 42.6829 -84.6341 196° South  Level FlightAware Approximate
13:05 42.5600 -84.7036 195° South 191 220 4,000  Level Chicago Center
13:06 42.6362 -84.6519 196° South  Level FlightAware Approximate
13:06 42.5083 -84.7239 196° South 192 221 4,000  Level Chicago Center
13:07 42.5896 -84.6696 196° South  Level FlightAware Approximate
13:07 42.4581 -84.7417 195° South 190 219 4,000  Level Chicago Center
13:08 42.5429 -84.6873 196° South  Level FlightAware Approximate
13:08 42.4078 -84.7603 195° South 189 217 4,000  Level Chicago Center
13:09 42.3483 -84.7819 195° South 187 215 4,000  Level Chicago Center
13:11 42.2994 -84.7997 195° South 185 213 4,000  Level Chicago Center
13:12 42.2506 -84.8183 196° South 183 211 4,000  Level Chicago Center
13:13 42.2025 -84.8358 195° South 181 208 4,000  Level Chicago Center
13:14 42.1550 -84.8539 196° South 179 206 4,000  Level Chicago Center
13:15 42.1081 -84.8703 195° South 177 204 4,000  Level Chicago Center
13:16 42.0522 -84.8914 196° South 175 201 4,000  Level Chicago Center
13:17 42.0064 -84.9081 195° South 173 199 4,000  Level Chicago Center
13:18 41.9575 -84.9269 196° South 176 203 4,000  Level Chicago Center
13:19 41.9089 -84.9436 194° South 179 206 4,000  Level Chicago Center
13:20 41.8611 -84.9606 195° South 179 206 4,000  Level Chicago Center
13:21 41.8128 -84.9792 196° South 179 206 4,000  Level Chicago Center
13:22 41.7561 -84.9994 195° South 178 205 4,000  Level Chicago Center
13:23 41.7106 -85.0167 196° South 174 200 4,000  Level Chicago Center
13:24 41.6656 -85.0328 195° South 170 196 4,000  Level Chicago Center
13:25 41.6219 -85.0486 195° South 166 191 4,000  Level Chicago Center
13:26 41.5778 -85.0650 196° South 164 189 4,000  Level Chicago Center
13:27 41.5333 -85.0814 195° South 165 190 4,000  Level Chicago Center
13:28 41.4792 -85.1000 194° South 166 191 4,000  Level Chicago Center
13:29 41.4344 -85.1169 196° South 166 191 4,000  Level Chicago Center
13:30 41.3900 -85.1331 195° South 166 191 4,000  Level Chicago Center
13:31 41.3453 -85.1492 195° South 166 191 4,000  Level Chicago Center
13:32 41.3017 -85.1650 195° South 164 189 4,000  Level Chicago Center
13:33 41.2575 -85.1803 195° South 164 189 4,000  Level Chicago Center
13:34 41.2089 -85.1978 195° South 164 189 4,000  Level Chicago Center
13:35 41.1603 -85.2150 194° South 164 189 4,100  Climbing Chicago Center
13:36 41.1547 -85.2160 194° South  Level FlightAware Approximate
13:36 41.1156 -85.2322 196° South 165 190 4,000  Level Chicago Center
13:37 41.0753 -85.2594 207° Southwest 164 189 4,000  Level Chicago Center
13:40 41.0117 -85.3444 225° Southwest 162 186 4,000  Level Chicago Center
13:41 40.9794 -85.3847 223° Southwest 161 185 4,000  Level Chicago Center
13:42 40.9336 -85.4211 211° Southwest 161 185 4,000  Level Chicago Center
13:43 40.8338 -85.3231 194° South  Level FlightAware Approximate
13:43 40.8914 -85.4444 203° Southwest 163 188 4,000  Level Chicago Center
13:44 40.8481 -85.4697 204° Southwest 166 191 4,000  Level Chicago Center
13:45 40.8061 -85.4942 204° Southwest 166 191 4,000  Level Chicago Center
13:46 40.7533 -85.5267 205° Southwest 167 192 4,000  Level Chicago Center
13:47 40.7133 -85.5481 202° Southwest 166 191 4,000  Level Chicago Center
13:48 40.6683 -85.5775 206° Southwest 166 191 4,000  Level Chicago Center
13:49 40.6281 -85.6003 203° Southwest 166 191 4,000  Level Chicago Center
13:50 40.5836 -85.6256 203° Southwest 166 191 4,000  Level Chicago Center
13:51 40.5394 -85.6497 203° Southwest 167 192 4,000  Level Chicago Center
13:52 40.4989 -85.6764 207° Southwest 167 192 4,000  Level Chicago Center
13:53 40.4519 -85.6919 194° South 168 193 4,000  Level Chicago Center
13:54 40.4047 -85.7033 190° South 170 196 4,000  Level Chicago Center
13:55 40.3575 -85.7183 194° South 172 198 4,000  Level Chicago Center
13:56 40.3114 -85.7311 192° South 171 197 4,000  Level Chicago Center
13:57 40.2558 -85.7475 193° South 170 196 4,000  Level Chicago Center
13:58 40.2086 -85.7625 194° South 172 198 4,000  Level Chicago Center
13:59 40.1631 -85.7758 193° South 171 197 4,000  Level Chicago Center
14:01 40.0667 -85.8000 191° South 170 196 4,000  Level Indianapolis TRACON
14:02 40.0333 -85.8167 201° Southwest 171 197 4,000  Level Indianapolis TRACON
14:03 39.9878 -85.8289 192° South 170 196 4,000  Level Indianapolis Center
14:04 39.9422 -85.8425 193° South 169 194 4,000  Level Indianapolis Center
14:05 39.8969 -85.8556 192° South 168 193 4,000  Level Indianapolis Center
14:06 39.8522 -85.8681 192° South 166 191 4,000  Level Indianapolis Center
14:07 39.8086 -85.8869 198° South 165 190 4,000  Level Indianapolis Center
14:08 39.7622 -85.9272 214° Southwest 166 191 4,000  Level Indianapolis Center
14:09 39.7231 -85.9594 212° Southwest 166 191 4,000  Level Indianapolis Center
14:10 39.6836 -85.9917 212° Southwest 166 191 4,000  Level Indianapolis Center
14:11 39.6439 -86.0239 212° Southwest 167 192 4,000  Level Indianapolis Center
14:12 39.6056 -86.0564 213° Southwest 166 191 4,000  Level Indianapolis Center
14:13 39.5683 -86.0914 216° Southwest 165 190 4,000  Level Indianapolis Center
14:14 39.5389 -86.1367 230° Southwest 171 197 4,000  Level Indianapolis Center
14:15 39.5083 -86.1797 227° Southwest 165 190 4,000  Level Indianapolis Center
14:16 39.4775 -86.2236 228° Southwest 164 189 4,000  Level Indianapolis Center
14:17 39.4419 -86.2756 228° Southwest 162 186 4,000  Level Indianapolis Center
14:18 39.3964 -86.2861 190° South 168 193 4,000  Level Indianapolis Center
14:19 39.3489 -86.2967 190° South 169 194 4,000  Level Indianapolis Center
14:20 39.3033 -86.3072 190° South 168 193 4,000  Level Indianapolis Center
14:21 39.2569 -86.3158 188° South 168 193 4,000  Level Indianapolis Center
14:23 39.2111 -86.3233 187° South 167 192 4,000  Level Indianapolis Center
14:24 39.1647 -86.3317 188° South 166 191 4,000  Level Indianapolis Center
14:25 39.1097 -86.3444 190° South 167 192 4,000  Level Indianapolis Center
14:26 39.0631 -86.3536 189° South 168 193 4,000  Level Indianapolis Center
14:27 39.0167 -86.3631 189° South 169 194 4,000  Level Indianapolis Center
14:28 38.9703 -86.3708 187° South 167 192 4,000  Level Indianapolis Center
14:29 38.9247 -86.3803 189° South 166 191 4,000  Level Indianapolis Center
14:30 38.8767 -86.3900 189° South 163 188 4,000  Level Indianapolis Center
14:31 38.8317 -86.3975 187° South 162 186 4,000  Level Indianapolis Center
14:32 38.7858 -86.4067 189° South 165 190 4,000  Level Indianapolis Center
14:33 38.7383 -86.4147 188° South 169 194 4,000  Level Indianapolis Center
14:34 38.6919 -86.4239 189° South 169 194 4,000  Level Indianapolis Center
14:35 38.6356 -86.4350 189° South 169 194 4,000  Level Indianapolis Center
14:36 38.5881 -86.4436 188° South 171 197 4,000  Level Indianapolis Center
14:37 38.5403 -86.4531 189° South 172 198 4,000  Level Indianapolis Center
14:38 38.4928 -86.4619 188° South 172 198 4,000  Level Indianapolis Center
14:39 38.4456 -86.4711 189° South 171 197 4,000  Level Indianapolis Center
14:40 38.3986 -86.4800 188° South 170 196 4,000  Level Indianapolis Center
14:41 38.3525 -86.4881 188° South 168 193 4,000  Level Indianapolis Center
14:42 38.3056 -86.4975 189° South 168 193 4,000  Level Indianapolis Center
14:43 38.2481 -86.5086 189° South 170 196 4,000  Level Indianapolis Center
14:44 38.1997 -86.5181 189° South 173 199 4,000  Level Indianapolis Center
14:45 38.1508 -86.5272 188° South 174 200 4,000  Level Indianapolis Center
14:46 38.1036 -86.5358 188° South 173 199 4,000  Level Indianapolis Center
14:47 38.0553 -86.5444 188° South 173 199 4,000  Level Indianapolis Center
14:48 38.0078 -86.5525 188° South 172 198 4,100  Climbing Indianapolis Center
14:49 37.9606 -86.5617 189° South 171 197 4,100  Level Indianapolis Center
14:50 37.9136 -86.5706 188° South 171 197 4,100  Level Indianapolis Center
14:51 37.8667 -86.5800 189° South 170 196 4,100  Level Indianapolis Center
14:52 37.8103 -86.5900 188° South 169 194 4,100  Level Indianapolis Center
14:53 37.7633 -86.5986 188° South 169 194 4,100 -60 Level Indianapolis Center
14:54 37.7169 -86.6067 188° South 169 194 4,000  Descending Indianapolis Center
14:56 37.6697 -86.6167 190° South 169 194 4,100  Climbing Indianapolis Center
14:57 37.6228 -86.6256 189° South 169 194 4,100 -60 Level Indianapolis Center
14:58 37.5775 -86.6331 187° South 165 190 4,000  Descending Indianapolis Center
14:59 37.5322 -86.6417 189° South 163 188 4,100  Climbing Indianapolis Center
15:00 37.4772 -86.6506 187° South 165 190 4,100  Level Indianapolis Center
15:01 37.4308 -86.6619 191° South 168 193 4,100  Level Indianapolis Center
15:02 37.3822 -86.6689 186° South 173 199 4,100  Level Indianapolis Center
15:03 37.3350 -86.6772 188° South 171 197 4,100  Level Indianapolis Center
15:04 37.2881 -86.6872 190° South 170 196 4,100  Level Indianapolis Center
15:05 37.2356 -86.6953 187° South 170 196 4,100  Level Indianapolis Center
15:06 37.1881 -86.7042 188° South 171 197 4,100  Level Indianapolis Center
15:07 37.1406 -86.7133 189° South 171 197 4,100 -60 Level Indianapolis Center
15:08 37.0944 -86.7211 188° South 168 193 4,000  Descending Indianapolis Center
15:09 37.0478 -86.7311 190° South 167 192 4,100  Climbing Indianapolis Center
15:10 37.0000 -86.7397 188° South 171 197 4,100 -60 Level Indianapolis Center
15:11 36.9439 -86.7503 189° South 173 199 4,000 -60 Descending Indianapolis Center
15:12 36.8950 -86.7600 189° South 174 200 4,000  Level Indianapolis Center
15:13 36.8714 -86.7650 190° South 180 207 4,000 60 Level Memphis Center
15:14 36.8239 -86.7725 187° South 180 207 4,100 60 Climbing Memphis Center